Time;durP1;ratioP1;P1;durP2;ratioP2;P2;SDS_P1;SDS_P2;PMS_P1;PMS_P2;Temp;Humidity;BMP_temperature;BMP_pressure;BME280_temperature;BME280_humidity;BME280_pressure;Samples;Min_cycle;Max_cycle;Signal;HPM_P1;HPM_P2
2022/10/15 00:02:29;;;;;;;30.70;16.45;;;;;;;;;;4936468;29;20043;-75
2022/10/15 00:05:15;;;;;;;29.75;15.98;;;;;;;;;;4936365;29;20051;-75
2022/10/15 00:08:00;;;;;;;34.05;17.40;;;;;;;;;;4936944;29;20047;-76
2022/10/15 00:10:46;;;;;;;29.17;13.23;;;;;;;;;;4936597;29;20044;-76
2022/10/15 00:13:32;;;;;;;20.15;11.57;;;;;;;;;;4942842;29;20035;-74
2022/10/15 00:16:22;;;;;;;19.77;10.60;;;;;;;;;;4936268;29;20048;-74
2022/10/15 00:19:08;;;;;;;28.00;14.05;;;;;;;;;;4936163;29;20070;-75
2022/10/15 00:21:54;;;;;;;27.95;13.65;;;;;;;;;;4936215;29;20047;-76
2022/10/15 00:24:40;;;;;;;28.02;13.65;;;;;;;;;;4936127;29;20051;-76
2022/10/15 00:27:25;;;;;;;30.75;13.38;;;;;;;;;;4936883;29;20039;-76
2022/10/15 00:30:11;;;;;;;25.83;11.52;;;;;;;;;;4937393;29;20048;-76
2022/10/15 00:32:57;;;;;;;25.02;11.48;;;;;;;;;;4938240;29;20052;-76
2022/10/15 00:35:42;;;;;;;21.75;11.07;;;;;;;;;;4938152;29;20486;-75
2022/10/15 00:38:28;;;;;;;25.83;10.77;;;;;;;;;;4943612;29;20052;-76
2022/10/15 00:41:22;;;;;;;26.20;11.95;;;;;;;;;;4937762;29;20036;-75
2022/10/15 00:44:20;;;;;;;74.63;26.73;;;;;;;;;;4943418;29;20047;-75
2022/10/15 00:47:19;;;;;;;71.93;27.88;;;;;;;;;;4937831;29;20043;-76
2022/10/15 00:50:06;;;;;;;35.30;15.52;;;;;;;;;;4941185;29;20048;-76
2022/10/15 00:53:06;;;;;;;25.48;12.02;;;;;;;;;;4937899;29;20051;-76
2022/10/15 00:55:52;;;;;;;28.80;14.27;;;;;;;;;;4943146;29;20394;-76
2022/10/15 00:58:38;;;;;;;19.88;10.57;;;;;;;;;;4937540;29;20055;-75
2022/10/15 01:01:24;;;;;;;22.88;11.55;;;;;;;;;;4937799;29;20039;-75
2022/10/15 01:04:10;;;;;;;26.13;13.93;;;;;;;;;;4942784;29;20055;-75
2022/10/15 01:06:55;;;;;;;23.83;13.57;;;;;;;;;;4942882;29;20048;-75
2022/10/15 01:09:44;;;;;;;26.80;14.27;;;;;;;;;;4937124;29;20051;-76
2022/10/15 01:12:37;;;;;;;27.48;13.68;;;;;;;;;;4937431;29;20509;-76
2022/10/15 01:15:28;;;;;;;22.52;12.85;;;;;;;;;;4942802;29;20036;-76
2022/10/15 01:18:18;;;;;;;21.00;11.35;;;;;;;;;;4941841;29;20393;-76
2022/10/15 01:21:37;;;;;;;18.23;11.45;;;;;;;;;;4943795;29;20381;-77
2022/10/15 01:24:29;;;;;;;12.43;8.43;;;;;;;;;;4937101;29;20043;-75
2022/10/15 01:27:26;;;;;;;14.32;7.13;;;;;;;;;;4936978;29;20063;-75
2022/10/15 01:30:34;;;;;;;12.13;7.13;;;;;;;;;;4936860;29;20039;-75
2022/10/15 01:33:30;;;;;;;12.57;6.70;;;;;;;;;;4942656;29;20048;-77
2022/10/15 01:36:46;;;;;;;13.75;6.47;;;;;;;;;;4942679;29;20040;-75
2022/10/15 01:39:36;;;;;;;14.52;8.48;;;;;;;;;;4922509;29;20040;-75
2022/10/15 01:42:31;;;;;;;22.80;11.05;;;;;;;;;;4934174;29;20048;-76
2022/10/15 01:45:57;;;;;;;14.45;8.32;;;;;;;;;;4942173;29;20409;-76
2022/10/15 01:49:24;;;;;;;14.05;7.18;;;;;;;;;;4942429;29;20051;-75
2022/10/15 01:52:18;;;;;;;12.63;6.63;;;;;;;;;;4936237;29;20489;-76
2022/10/15 01:55:07;;;;;;;11.25;6.28;;;;;;;;;;4942104;29;20040;-76
2022/10/15 01:57:58;;;;;;;13.95;6.57;;;;;;;;;;4941800;29;20044;-75
2022/10/15 02:00:46;;;;;;;14.88;6.32;;;;;;;;;;4941867;29;20470;-75
2022/10/15 02:03:31;;;;;;;12.52;6.53;;;;;;;;;;4941922;29;20047;-75
2022/10/15 02:06:35;;;;;;;15.20;6.75;;;;;;;;;;4942214;29;20048;-76
2022/10/15 02:09:51;;;;;;;13.50;6.60;;;;;;;;;;4941875;29;20044;-76
2022/10/15 02:12:57;;;;;;;17.35;8.00;;;;;;;;;;4941861;29;20258;-76
2022/10/15 02:15:50;;;;;;;21.20;8.82;;;;;;;;;;4936375;29;20401;-76
2022/10/15 02:19:16;;;;;;;18.02;8.75;;;;;;;;;;4942063;29;20405;-76
2022/10/15 02:22:12;;;;;;;15.75;8.88;;;;;;;;;;4935576;29;20043;-75
2022/10/15 02:25:05;;;;;;;14.63;8.27;;;;;;;;;;4941757;29;20055;-76
2022/10/15 02:27:53;;;;;;;11.63;7.03;;;;;;;;;;4936427;29;20056;-75
2022/10/15 02:30:41;;;;;;;12.93;7.28;;;;;;;;;;4941561;29;20048;-75
2022/10/15 02:33:31;;;;;;;10.48;6.30;;;;;;;;;;4921637;29;20047;-75
2022/10/15 02:36:17;;;;;;;9.73;5.90;;;;;;;;;;4936525;29;20466;-75
2022/10/15 02:39:04;;;;;;;10.88;5.72;;;;;;;;;;4941554;29;20048;-76
2022/10/15 02:41:52;;;;;;;11.90;5.50;;;;;;;;;;4936621;29;20039;-75
2022/10/15 02:44:38;;;;;;;9.55;4.93;;;;;;;;;;4941688;29;20051;-75
2022/10/15 02:47:23;;;;;;;14.60;5.53;;;;;;;;;;4936451;29;20047;-76
2022/10/15 02:50:09;;;;;;;8.38;5.10;;;;;;;;;;4939268;29;20059;-75
2022/10/15 02:52:54;;;;;;;14.25;6.38;;;;;;;;;;4942925;29;20059;-75
2022/10/15 02:55:40;;;;;;;8.88;5.40;;;;;;;;;;4940033;29;20485;-75
2022/10/15 02:58:25;;;;;;;9.13;5.72;;;;;;;;;;4945217;29;20385;-75
2022/10/15 03:01:11;;;;;;;11.90;5.45;;;;;;;;;;4945238;29;20043;-75
2022/10/15 03:03:57;;;;;;;8.55;5.38;;;;;;;;;;4945156;29;20493;-75
2022/10/15 03:06:43;;;;;;;9.88;5.05;;;;;;;;;;4945200;29;20048;-75
2022/10/15 03:09:29;;;;;;;11.50;5.53;;;;;;;;;;4940152;29;20421;-75
2022/10/15 03:12:14;;;;;;;13.15;6.47;;;;;;;;;;4944864;29;20044;-75
2022/10/15 03:15:00;;;;;;;17.42;9.30;;;;;;;;;;4944756;29;20048;-75
2022/10/15 03:17:45;;;;;;;13.82;8.35;;;;;;;;;;4944918;29;20477;-75
2022/10/15 03:20:34;;;;;;;18.17;9.38;;;;;;;;;;4944782;29;20048;-75
2022/10/15 03:23:20;;;;;;;21.35;9.85;;;;;;;;;;4944946;29;20043;-75
2022/10/15 03:26:06;;;;;;;20.50;9.50;;;;;;;;;;4944917;29;20052;-75
2022/10/15 03:28:52;;;;;;;18.92;8.00;;;;;;;;;;4944482;29;20047;-75
2022/10/15 03:31:50;;;;;;;19.27;9.05;;;;;;;;;;4944457;29;20044;-75
2022/10/15 03:34:36;;;;;;;17.38;8.10;;;;;;;;;;4944498;29;20085;-75
2022/10/15 03:37:21;;;;;;;15.63;6.97;;;;;;;;;;4944446;29;20394;-75
2022/10/15 03:40:08;;;;;;;20.52;7.22;;;;;;;;;;4944505;29;20065;-76
2022/10/15 03:42:55;;;;;;;18.35;7.22;;;;;;;;;;4944586;29;20486;-75
2022/10/15 03:45:42;;;;;;;20.63;7.47;;;;;;;;;;4944596;29;20048;-75
2022/10/15 03:48:40;;;;;;;21.52;8.00;;;;;;;;;;4944195;29;20047;-77
2022/10/15 03:51:25;;;;;;;19.52;9.30;;;;;;;;;;4938499;29;20056;-77
2022/10/15 03:54:16;;;;;;;13.23;7.97;;;;;;;;;;4944222;29;20048;-76
2022/10/15 03:57:09;;;;;;;18.55;8.35;;;;;;;;;;4944056;29;20051;-76
2022/10/15 04:00:01;;;;;;;15.25;7.75;;;;;;;;;;4944078;29;20051;-77
2022/10/15 04:02:57;;;;;;;11.90;7.68;;;;;;;;;;4938815;29;20040;-76
2022/10/15 04:05:52;;;;;;;17.15;7.60;;;;;;;;;;4943284;29;20059;-76
2022/10/15 04:08:40;;;;;;;15.82;7.38;;;;;;;;;;4944471;29;20048;-75
2022/10/15 04:11:38;;;;;;;18.27;6.95;;;;;;;;;;4943627;29;20044;-75
2022/10/15 04:14:23;;;;;;;12.88;7.70;;;;;;;;;;4938404;29;20047;-75
2022/10/15 04:17:09;;;;;;;13.20;7.35;;;;;;;;;;4938486;29;20055;-76
2022/10/15 04:19:54;;;;;;;16.60;8.25;;;;;;;;;;4943817;29;20052;-75
2022/10/15 04:22:40;;;;;;;18.77;8.25;;;;;;;;;;4944123;29;20047;-75
2022/10/15 04:25:25;;;;;;;19.05;7.55;;;;;;;;;;4943605;29;20040;-76
2022/10/15 04:28:11;;;;;;;15.95;7.97;;;;;;;;;;4943616;29;20052;-75
2022/10/15 04:30:59;;;;;;;13.82;8.57;;;;;;;;;;4943280;29;20043;-75
2022/10/15 04:33:47;;;;;;;20.48;11.35;;;;;;;;;;4943546;29;20457;-75
2022/10/15 04:36:33;;;;;;;24.83;10.57;;;;;;;;;;4943887;29;20048;-75
2022/10/15 04:39:24;;;;;;;19.50;10.07;;;;;;;;;;4943313;29;20405;-75
2022/10/15 04:42:10;;;;;;;25.38;10.73;;;;;;;;;;4937208;29;20490;-75
2022/10/15 04:44:56;;;;;;;25.83;11.40;;;;;;;;;;4943195;29;20043;-76
2022/10/15 04:47:41;;;;;;;26.92;11.45;;;;;;;;;;4937894;29;20043;-74
2022/10/15 04:50:29;;;;;;;24.25;11.75;;;;;;;;;;4937292;29;20048;-75
2022/10/15 04:53:36;;;;;;;26.38;11.73;;;;;;;;;;4937680;29;20051;-75
2022/10/15 04:56:22;;;;;;;22.90;11.35;;;;;;;;;;4943204;29;20047;-76
2022/10/15 04:59:08;;;;;;;23.52;10.30;;;;;;;;;;4937730;29;20055;-75
2022/10/15 05:02:04;;;;;;;24.13;9.77;;;;;;;;;;4942834;29;20035;-75
2022/10/15 05:04:50;;;;;;;46.85;25.38;;;;;;;;;;4937297;29;20043;-77
2022/10/15 05:07:36;;;;;;;42.85;22.83;;;;;;;;;;4937230;29;20044;-75
2022/10/15 05:10:21;;;;;;;29.92;15.98;;;;;;;;;;4942569;29;20043;-76
2022/10/15 05:13:08;;;;;;;28.27;15.20;;;;;;;;;;4942830;29;20040;-77
2022/10/15 05:15:56;;;;;;;23.58;13.15;;;;;;;;;;4943464;29;20060;-76
2022/10/15 05:18:45;;;;;;;18.23;9.70;;;;;;;;;;4942756;29;20047;-75
2022/10/15 05:21:32;;;;;;;16.70;10.38;;;;;;;;;;4942612;29;20043;-77
2022/10/15 05:24:21;;;;;;;24.30;10.77;;;;;;;;;;4942665;29;20047;-75
2022/10/15 05:27:20;;;;;;;20.67;11.40;;;;;;;;;;4942615;29;20501;-76
2022/10/15 05:30:06;;;;;;;20.55;11.25;;;;;;;;;;4942115;29;20048;-77
2022/10/15 05:33:11;;;;;;;25.95;15.38;;;;;;;;;;4942321;29;20493;-75
2022/10/15 05:35:57;;;;;;;30.13;14.95;;;;;;;;;;4942348;29;20434;-77
2022/10/15 05:38:44;;;;;;;28.40;14.98;;;;;;;;;;4942249;29;20051;-76
2022/10/15 05:41:30;;;;;;;25.73;13.25;;;;;;;;;;4942323;29;20043;-76
2022/10/15 05:44:15;;;;;;;25.48;11.45;;;;;;;;;;4942560;29;20044;-75
2022/10/15 05:47:01;;;;;;;26.08;11.40;;;;;;;;;;4937000;29;20047;-76
2022/10/15 05:49:46;;;;;;;19.75;12.13;;;;;;;;;;4940801;29;20051;-76
2022/10/15 05:52:38;;;;;;;21.45;12.57;;;;;;;;;;4942507;29;20051;-76
2022/10/15 05:55:31;;;;;;;24.52;13.48;;;;;;;;;;4941951;29;20051;-75
2022/10/15 05:58:16;;;;;;;28.90;13.93;;;;;;;;;;4936479;29;20035;-76
2022/10/15 06:01:03;;;;;;;24.60;12.55;;;;;;;;;;4943572;29;20401;-75
2022/10/15 06:03:49;;;;;;;27.42;13.25;;;;;;;;;;4936348;29;20055;-75
2022/10/15 06:06:34;;;;;;;28.00;13.68;;;;;;;;;;4936767;29;20043;-76
2022/10/15 06:09:20;;;;;;;30.13;14.65;;;;;;;;;;4936252;29;20051;-75
2022/10/15 06:12:06;;;;;;;23.75;14.48;;;;;;;;;;4936321;29;20044;-75
2022/10/15 06:14:51;;;;;;;26.48;13.77;;;;;;;;;;4936587;29;20055;-77
2022/10/15 06:17:36;;;;;;;27.27;14.32;;;;;;;;;;4936268;29;20051;-76
2022/10/15 06:20:22;;;;;;;32.10;14.40;;;;;;;;;;4943309;29;20044;-75
2022/10/15 06:23:09;;;;;;;28.85;15.18;;;;;;;;;;4942907;29;20044;-76
2022/10/15 06:25:54;;;;;;;35.20;16.02;;;;;;;;;;4942083;29;20044;-75
2022/10/15 06:28:40;;;;;;;27.50;16.17;;;;;;;;;;4945664;29;20047;-76
2022/10/15 06:31:25;;;;;;;37.55;18.67;;;;;;;;;;4939997;29;20490;-75
2022/10/15 06:34:11;;;;;;;32.70;18.15;;;;;;;;;;4940578;29;20044;-76
2022/10/15 06:36:56;;;;;;;33.70;18.52;;;;;;;;;;4940698;29;20486;-75
2022/10/15 06:39:41;;;;;;;35.45;18.42;;;;;;;;;;4946138;29;20043;-76
2022/10/15 06:42:27;;;;;;;41.55;21.70;;;;;;;;;;4939904;29;20039;-76
2022/10/15 06:45:13;;;;;;;37.60;19.75;;;;;;;;;;4945198;29;20051;-76
2022/10/15 06:47:58;;;;;;;39.15;20.58;;;;;;;;;;4940173;29;20047;-76
2022/10/15 06:50:44;;;;;;;39.25;21.65;;;;;;;;;;4939366;29;20048;-76
2022/10/15 06:53:30;;;;;;;45.40;19.70;;;;;;;;;;4946589;29;20063;-75
2022/10/15 06:56:15;;;;;;;30.25;17.95;;;;;;;;;;4939636;29;20043;-76
2022/10/15 06:59:00;;;;;;;46.30;24.80;;;;;;;;;;4939537;29;20047;-75
2022/10/15 07:01:45;;;;;;;41.83;24.17;;;;;;;;;;4939627;29;20043;-75
2022/10/15 07:04:31;;;;;;;41.72;25.15;;;;;;;;;;4939410;29;20048;-76
2022/10/15 07:07:16;;;;;;;51.40;24.90;;;;;;;;;;4939551;29;20051;-74
2022/10/15 07:10:02;;;;;;;31.38;17.85;;;;;;;;;;4939287;29;20052;-75
2022/10/15 07:12:47;;;;;;;24.73;14.98;;;;;;;;;;4945331;29;20040;-77
2022/10/15 07:15:33;;;;;;;30.60;15.02;;;;;;;;;;4938989;29;20052;-77
2022/10/15 07:18:19;;;;;;;29.35;16.33;;;;;;;;;;4945699;29;20529;-76
2022/10/15 07:21:06;;;;;;;24.33;14.90;;;;;;;;;;4945773;29;20044;-75
2022/10/15 07:23:52;;;;;;;28.40;15.82;;;;;;;;;;4939048;29;20043;-75
2022/10/15 07:26:37;;;;;;;30.30;15.98;;;;;;;;;;4945448;29;20047;-75
2022/10/15 07:29:23;;;;;;;24.13;15.40;;;;;;;;;;4945725;29;20502;-77
2022/10/15 07:32:08;;;;;;;23.27;14.10;;;;;;;;;;4938787;29;20036;-75
2022/10/15 07:34:54;;;;;;;26.50;11.77;;;;;;;;;;4945310;29;20052;-74
2022/10/15 07:37:40;;;;;;;27.55;10.88;;;;;;;;;;4938794;29;20044;-75
2022/10/15 07:40:26;;;;;;;19.98;10.43;;;;;;;;;;4937423;29;20493;-75
2022/10/15 07:43:11;;;;;;;26.80;12.45;;;;;;;;;;4938718;29;20039;-74
2022/10/15 07:45:58;;;;;;;22.83;13.25;;;;;;;;;;4938655;29;20043;-75
2022/10/15 07:48:44;;;;;;;23.80;13.10;;;;;;;;;;4938617;29;20048;-75
2022/10/15 07:51:29;;;;;;;18.33;10.82;;;;;;;;;;4938275;29;20055;-77
2022/10/15 07:54:15;;;;;;;25.30;13.30;;;;;;;;;;4944975;29;20055;-74
2022/10/15 07:57:01;;;;;;;26.25;14.70;;;;;;;;;;4938897;29;20040;-77
2022/10/15 07:59:46;;;;;;;28.48;14.35;;;;;;;;;;4938446;29;20472;-77
2022/10/15 08:02:32;;;;;;;30.33;14.60;;;;;;;;;;4938272;29;20040;-75
2022/10/15 08:05:18;;;;;;;21.00;14.27;;;;;;;;;;4938475;29;20052;-75
2022/10/15 08:08:03;;;;;;;28.55;14.90;;;;;;;;;;4939142;29;20048;-77
2022/10/15 08:10:49;;;;;;;17.98;10.50;;;;;;;;;;4938708;29;20051;-77
2022/10/15 08:13:34;;;;;;;24.70;14.23;;;;;;;;;;4938192;29;20506;-77
2022/10/15 08:16:20;;;;;;;28.95;14.90;;;;;;;;;;4938053;29;20051;-75
2022/10/15 08:19:16;;;;;;;25.10;14.20;;;;;;;;;;4938599;29;20047;-77
2022/10/15 08:22:02;;;;;;;22.30;12.55;;;;;;;;;;4937941;29;20047;-75
2022/10/15 08:24:48;;;;;;;23.83;13.60;;;;;;;;;;4944379;29;20043;-75
2022/10/15 08:27:35;;;;;;;19.05;12.73;;;;;;;;;;4938032;29;20055;-76
2022/10/15 08:30:22;;;;;;;18.17;10.82;;;;;;;;;;4944256;29;20069;-75
2022/10/15 08:33:07;;;;;;;16.88;10.02;;;;;;;;;;4937882;29;20406;-75
2022/10/15 08:35:53;;;;;;;16.02;10.02;;;;;;;;;;4937765;29;20044;-77
2022/10/15 08:38:39;;;;;;;15.80;8.57;;;;;;;;;;4938128;29;20409;-77
2022/10/15 08:41:58;;;;;;;14.15;8.82;;;;;;;;;;4937321;29;20036;-75
2022/10/15 08:44:49;;;;;;;12.52;7.57;;;;;;;;;;4937441;29;20047;-78
2022/10/15 08:47:51;;;;;;;14.50;7.97;;;;;;;;;;4937680;29;20044;-75
2022/10/15 08:50:42;;;;;;;15.55;8.70;;;;;;;;;;4936754;29;20405;-75
2022/10/15 08:53:28;;;;;;;19.02;8.70;;;;;;;;;;4937461;29;20040;-75
2022/10/15 08:56:36;;;;;;;13.68;7.53;;;;;;;;;;4937258;29;20051;-75
2022/10/15 08:59:46;;;;;;;15.15;7.30;;;;;;;;;;4942961;29;20039;-74
2022/10/15 09:02:46;;;;;;;9.88;6.07;;;;;;;;;;4937222;29;20044;-77
2022/10/15 09:05:41;;;;;;;11.82;6.50;;;;;;;;;;4937054;29;20048;-75
2022/10/15 09:08:43;;;;;;;9.07;6.63;;;;;;;;;;4937478;29;20402;-76
2022/10/15 09:12:09;;;;;;;10.80;5.53;;;;;;;;;;4937103;29;20051;-76
2022/10/15 09:14:57;;;;;;;;;;;;;;;;;;4918806;29;20393;-75
2022/10/15 09:17:47;;;;;;;11.48;5.15;;;;;;;;;;4937090;29;19914;-75
2022/10/15 09:20:35;;;;;;;9.60;4.97;;;;;;;;;;4936063;29;20043;-76
2022/10/15 09:23:25;;;;;;;8.80;4.05;;;;;;;;;;4943781;29;20490;-77
2022/10/15 09:26:10;;;;;;;11.07;5.22;;;;;;;;;;4937012;29;20043;-76
2022/10/15 09:29:38;;;;;;;6.43;4.13;;;;;;;;;;4936195;29;20048;-74
2022/10/15 09:32:33;;;;;;;9.85;4.57;;;;;;;;;;4859513;29;20049;-77
2022/10/15 09:35:23;;;;;;;12.93;6.00;;;;;;;;;;4937002;29;20490;-74
2022/10/15 09:38:46;;;;;;;10.35;5.63;;;;;;;;;;4936596;29;20043;-75
2022/10/15 09:41:52;;;;;;;11.25;6.15;;;;;;;;;;4937002;29;20040;-76
2022/10/15 09:44:41;;;;;;;12.32;6.38;;;;;;;;;;4936834;29;20051;-75
2022/10/15 09:47:32;;;;;;;7.10;4.45;;;;;;;;;;4936551;29;20040;-75
2022/10/15 09:50:21;;;;;;;11.13;6.32;;;;;;;;;;4936432;29;20405;-76
2022/10/15 09:53:35;;;;;;;10.60;6.03;;;;;;;;;;4936461;29;20043;-74
2022/10/15 09:56:25;;;;;;;11.27;5.20;;;;;;;;;;4936575;29;20485;-74
2022/10/15 09:59:18;;;;;;;10.40;4.15;;;;;;;;;;4936410;29;20055;-76
2022/10/15 10:02:13;;;;;;;10.47;4.07;;;;;;;;;;4935860;29;20044;-75
2022/10/15 10:05:18;;;;;;;6.15;4.32;;;;;;;;;;4936441;29;20044;-77
2022/10/15 10:08:24;;;;;;;11.25;5.03;;;;;;;;;;4935093;29;20051;-74
2022/10/15 10:11:11;;;;;;;10.05;4.60;;;;;;;;;;4936380;29;20048;-74
2022/10/15 10:13:58;;;;;;;7.70;4.22;;;;;;;;;;4936543;29;20043;-77
2022/10/15 10:17:13;;;;;;;14.95;4.43;;;;;;;;;;4936536;29;20039;-76
2022/10/15 10:20:07;;;;;;;8.40;4.53;;;;;;;;;;4936685;29;20043;-74
2022/10/15 10:23:20;;;;;;;6.68;4.05;;;;;;;;;;4936152;29;20044;-75
2022/10/15 10:26:09;;;;;;;8.63;3.45;;;;;;;;;;4934763;29;20482;-74
2022/10/15 10:28:55;;;;;;;6.40;3.88;;;;;;;;;;4936443;29;20481;-75
2022/10/15 10:31:42;;;;;;;13.25;4.47;;;;;;;;;;4942034;29;20393;-76
2022/10/15 10:34:31;;;;;;;8.93;4.45;;;;;;;;;;4942440;29;20055;-75
2022/10/15 10:37:17;;;;;;;12.65;5.35;;;;;;;;;;4936095;29;20056;-74
2022/10/15 10:40:06;;;;;;;11.50;5.72;;;;;;;;;;4936313;29;20055;-73
2022/10/15 10:43:11;;;;;;;7.28;4.28;;;;;;;;;;4935823;29;20044;-75
2022/10/15 10:45:58;;;;;;;12.77;5.07;;;;;;;;;;4942185;29;20047;-74
2022/10/15 10:48:45;;;;;;;7.85;4.70;;;;;;;;;;4936277;29;20048;-74
2022/10/15 10:51:31;;;;;;;7.72;4.13;;;;;;;;;;4935188;29;20048;-74
2022/10/15 10:54:16;;;;;;;6.75;5.05;;;;;;;;;;4935776;29;20051;-74
2022/10/15 10:57:06;;;;;;;6.03;3.92;;;;;;;;;;4935800;29;20419;-74
2022/10/15 10:59:55;;;;;;;8.50;4.20;;;;;;;;;;4935930;29;20478;-74
2022/10/15 11:02:42;;;;;;;8.20;4.50;;;;;;;;;;4941163;29;20402;-75
2022/10/15 11:05:32;;;;;;;9.25;4.75;;;;;;;;;;4936064;29;20044;-74
2022/10/15 11:08:40;;;;;;;9.93;5.03;;;;;;;;;;4942353;29;20047;-75
2022/10/15 11:11:58;;;;;;;9.05;5.18;;;;;;;;;;4935692;29;20048;-74
2022/10/15 11:15:31;;;;;;;10.82;5.10;;;;;;;;;;4938709;29;20406;-74
2022/10/15 11:18:25;;;;;;;6.93;4.75;;;;;;;;;;4891302;29;20051;-75
2022/10/15 11:21:13;;;;;;;9.00;5.55;;;;;;;;;;4939525;29;20051;-74
2022/10/15 11:24:18;;;;;;;10.07;4.75;;;;;;;;;;4939184;29;20043;-74
2022/10/15 11:27:24;;;;;;;7.22;4.68;;;;;;;;;;4938711;29;20044;-75
2022/10/15 11:30:32;;;;;;;10.00;5.10;;;;;;;;;;4945785;29;20047;-75
2022/10/15 11:33:30;;;;;;;7.03;4.90;;;;;;;;;;4938428;29;20397;-74
2022/10/15 11:37:02;;;;;;;8.05;4.93;;;;;;;;;;4939273;29;20048;-74
2022/10/15 11:40:03;;;;;;;9.15;4.53;;;;;;;;;;4938561;29;20525;-73
2022/10/15 11:42:58;;;;;;;7.93;4.93;;;;;;;;;;4934945;29;20040;-75
2022/10/15 11:46:32;;;;;;;11.40;5.20;;;;;;;;;;4938753;29;20044;-75
2022/10/15 11:49:21;;;;;;;6.72;3.95;;;;;;;;;;4861583;29;20061;-75
2022/10/15 11:52:11;;;;;;;9.52;5.05;;;;;;;;;;4938572;29;20039;-75
2022/10/15 11:55:10;;;;;;;11.48;4.97;;;;;;;;;;4938767;29;20044;-75
2022/10/15 11:58:01;;;;;;;9.13;5.35;;;;;;;;;;4938874;29;20043;-74
2022/10/15 12:00:50;;;;;;;11.00;5.80;;;;;;;;;;4945083;29;20393;-75
2022/10/15 12:03:47;;;;;;;11.57;5.78;;;;;;;;;;4938727;29;20063;-74
2022/10/15 12:06:38;;;;;;;7.60;4.93;;;;;;;;;;4938029;29;20047;-74
2022/10/15 12:09:29;;;;;;;6.82;3.88;;;;;;;;;;4938613;29;20044;-74
2022/10/15 12:12:49;;;;;;;10.55;5.85;;;;;;;;;;4938533;29;20051;-74
2022/10/15 12:15:45;;;;;;;13.23;6.22;;;;;;;;;;4937200;29;20040;-75
2022/10/15 12:18:59;;;;;;;14.13;7.53;;;;;;;;;;4943918;29;20052;-75
2022/10/15 12:21:53;;;;;;;21.52;11.02;;;;;;;;;;4936710;29;20043;-74
2022/10/15 12:24:39;;;;;;;11.68;5.50;;;;;;;;;;4935612;29;20044;-74
2022/10/15 12:27:27;;;;;;;22.55;10.18;;;;;;;;;;4935901;29;20040;-75
2022/10/15 12:30:19;;;;;;;13.82;7.93;;;;;;;;;;4943745;29;20055;-74
2022/10/15 12:33:43;;;;;;;10.18;5.38;;;;;;;;;;4937418;29;20044;-74
2022/10/15 12:36:32;;;;;;;16.83;9.68;;;;;;;;;;4937596;29;20490;-75
2022/10/15 12:39:24;;;;;;;10.85;6.68;;;;;;;;;;4937698;29;20047;-74
2022/10/15 12:42:25;;;;;;;15.23;8.52;;;;;;;;;;4937750;29;20048;-74
2022/10/15 12:45:21;;;;;;;10.38;5.45;;;;;;;;;;4937879;29;20044;-74
2022/10/15 12:48:15;;;;;;;15.68;7.88;;;;;;;;;;4944174;29;20043;-74
2022/10/15 12:51:20;;;;;;;7.45;4.55;;;;;;;;;;4939794;29;20055;-74
2022/10/15 12:54:40;;;;;;;11.55;5.82;;;;;;;;;;4937698;29;20497;-73
2022/10/15 12:57:36;;;;;;;8.90;4.43;;;;;;;;;;4937406;29;20043;-75
2022/10/15 13:00:30;;;;;;;8.82;4.15;;;;;;;;;;4942337;29;20486;-76
2022/10/15 13:03:22;;;;;;;12.55;4.78;;;;;;;;;;4935784;29;20040;-75
2022/10/15 13:06:19;;;;;;;7.40;4.88;;;;;;;;;;4937513;29;20051;-73
2022/10/15 13:09:11;;;;;;;5.15;3.13;;;;;;;;;;4942445;29;20035;-73
2022/10/15 13:11:58;;;;;;;6.70;3.35;;;;;;;;;;4935738;29;20478;-76
2022/10/15 13:14:53;;;;;;;7.07;3.58;;;;;;;;;;4935808;29;20052;-73
2022/10/15 13:17:39;;;;;;;;;;;;;;;;;;4937218;29;20048;-73
2022/10/15 13:20:36;;;;;;;5.70;3.63;;;;;;;;;;4943548;29;19918;-74
2022/10/15 13:23:30;;;;;;;7.80;4.60;;;;;;;;;;4937054;29;20043;-75
2022/10/15 13:26:29;;;;;;;12.13;7.20;;;;;;;;;;4943609;29;20048;-73
2022/10/15 13:29:16;;;;;;;11.90;5.60;;;;;;;;;;4943622;29;20478;-73
2022/10/15 13:32:02;;;;;;;13.63;6.03;;;;;;;;;;4936754;29;20051;-75
2022/10/15 13:34:47;;;;;;;9.43;4.32;;;;;;;;;;4937426;29;20053;-74
2022/10/15 13:37:37;;;;;;;8.57;4.85;;;;;;;;;;4937019;29;20142;-74
2022/10/15 13:40:25;;;;;;;6.15;3.45;;;;;;;;;;4929479;29;20055;-75
2022/10/15 13:43:21;;;;;;;11.00;4.40;;;;;;;;;;4936519;29;20044;-74
2022/10/15 13:46:14;;;;;;;9.48;3.80;;;;;;;;;;4936824;29;20048;-74
2022/10/15 13:49:01;;;;;;;11.10;3.88;;;;;;;;;;4936745;29;20056;-74
2022/10/15 13:51:49;;;;;;;9.18;3.70;;;;;;;;;;4935877;29;20414;-76
2022/10/15 13:54:35;;;;;;;11.05;3.95;;;;;;;;;;4937098;29;20044;-76
2022/10/15 13:57:19;;;;;;;9.20;4.63;;;;;;;;;;4936370;29;20051;-76
2022/10/15 14:00:06;;;;;;;10.95;4.93;;;;;;;;;;4941101;29;20390;-73
2022/10/15 14:03:06;;;;;;;7.35;3.83;;;;;;;;;;4935952;29;20040;-75
2022/10/15 14:05:53;;;;;;;6.68;3.60;;;;;;;;;;4936203;29;20425;-74
2022/10/15 14:08:39;;;;;;;4.15;2.60;;;;;;;;;;4936746;29;20047;-75
2022/10/15 14:11:26;;;;;;;8.50;4.38;;;;;;;;;;4936072;29;20495;-76
2022/10/15 14:14:30;;;;;;;10.40;6.47;;;;;;;;;;4941595;29;20043;-75
2022/10/15 14:17:16;;;;;;;8.82;5.75;;;;;;;;;;4936783;29;20043;-76
2022/10/15 14:20:05;;;;;;;9.93;6.03;;;;;;;;;;4936452;29;20481;-76
2022/10/15 14:22:50;;;;;;;11.40;5.75;;;;;;;;;;4941787;29;20040;-75
2022/10/15 14:25:36;;;;;;;16.33;5.13;;;;;;;;;;4942654;29;20052;-73
2022/10/15 14:28:23;;;;;;;9.85;5.22;;;;;;;;;;4942538;29;20044;-76
2022/10/15 14:31:29;;;;;;;9.70;5.05;;;;;;;;;;4936542;29;20051;-73
2022/10/15 14:34:35;;;;;;;9.52;4.93;;;;;;;;;;4935606;29;20047;-73
2022/10/15 14:37:33;;;;;;;10.38;5.18;;;;;;;;;;4936268;29;20049;-75
2022/10/15 14:40:20;;;;;;;15.75;5.95;;;;;;;;;;4936400;29;20044;-75
2022/10/15 14:43:16;;;;;;;9.30;5.20;;;;;;;;;;4936797;29;20043;-75
2022/10/15 14:46:10;;;;;;;11.80;5.60;;;;;;;;;;4936078;29;20044;-75
2022/10/15 14:48:56;;;;;;;11.95;5.03;;;;;;;;;;4937518;29;20397;-73
2022/10/15 14:51:41;;;;;;;9.95;5.63;;;;;;;;;;4939177;29;20047;-74
2022/10/15 14:54:34;;;;;;;13.90;5.15;;;;;;;;;;4939400;29;20047;-73
2022/10/15 14:57:23;;;;;;;8.38;5.38;;;;;;;;;;4945049;29;20501;-74
2022/10/15 15:00:26;;;;;;;10.02;5.70;;;;;;;;;;4939830;29;20052;-75
2022/10/15 15:03:17;;;;;;;10.18;5.53;;;;;;;;;;4940013;29;20043;-76
2022/10/15 15:06:03;;;;;;;12.25;5.78;;;;;;;;;;4939555;29;20047;-76
2022/10/15 15:08:48;;;;;;;12.85;6.13;;;;;;;;;;4946035;29;20494;-74
2022/10/15 15:11:35;;;;;;;10.98;5.90;;;;;;;;;;4939403;29;20047;-74
2022/10/15 15:14:27;;;;;;;15.32;7.43;;;;;;;;;;4945467;29;20043;-75
2022/10/15 15:17:19;;;;;;;44.83;29.48;;;;;;;;;;4945632;29;20055;-74
2022/10/15 15:20:06;;;;;;;69.97;49.63;;;;;;;;;;4938996;29;20035;-74
2022/10/15 15:22:54;;;;;;;11.98;7.22;;;;;;;;;;4945590;29;20032;-74
2022/10/15 15:25:41;;;;;;;21.42;11.68;;;;;;;;;;4939261;29;20048;-76
2022/10/15 15:28:28;;;;;;;11.80;8.32;;;;;;;;;;4939040;29;20481;-74
2022/10/15 15:31:16;;;;;;;16.65;9.82;;;;;;;;;;4939157;29;20393;-75
2022/10/15 15:34:02;;;;;;;18.15;9.52;;;;;;;;;;4937921;29;20048;-75
2022/10/15 15:36:48;;;;;;;16.02;8.85;;;;;;;;;;4937327;29;20329;-75
2022/10/15 15:39:33;;;;;;;19.20;9.77;;;;;;;;;;4943396;29;20051;-75
2022/10/15 15:42:21;;;;;;;17.05;9.80;;;;;;;;;;4936837;29;20489;-76
2022/10/15 15:45:16;;;;;;;18.77;10.23;;;;;;;;;;4936638;29;20039;-74
2022/10/15 15:48:02;;;;;;;14.57;9.38;;;;;;;;;;4944857;29;20048;-74
2022/10/15 15:50:47;;;;;;;13.85;9.00;;;;;;;;;;4941218;29;20055;-75
2022/10/15 15:53:34;;;;;;;21.80;12.57;;;;;;;;;;4938627;29;20485;-76
2022/10/15 15:56:20;;;;;;;29.00;16.25;;;;;;;;;;4937975;29;20040;-74
2022/10/15 15:59:05;;;;;;;25.67;14.88;;;;;;;;;;4938472;29;20044;-75
2022/10/15 16:01:51;;;;;;;36.05;20.60;;;;;;;;;;4937990;29;20040;-76
2022/10/15 16:04:36;;;;;;;41.63;20.92;;;;;;;;;;4938532;29;20036;-76
2022/10/15 16:07:22;;;;;;;30.42;16.90;;;;;;;;;;4938450;29;20056;-74
2022/10/15 16:10:10;;;;;;;33.63;14.80;;;;;;;;;;4938468;29;20466;-76
2022/10/15 16:12:55;;;;;;;25.80;11.65;;;;;;;;;;4938178;29;20044;-76
2022/10/15 16:15:41;;;;;;;32.90;13.75;;;;;;;;;;4938443;29;20048;-75
2022/10/15 16:18:26;;;;;;;25.85;12.63;;;;;;;;;;4938207;29;20044;-76
2022/10/15 16:21:11;;;;;;;27.30;11.88;;;;;;;;;;4937682;29;20043;-74
2022/10/15 16:23:57;;;;;;;16.42;9.50;;;;;;;;;;4938073;29;20427;-78
2022/10/15 16:26:43;;;;;;;20.30;10.05;;;;;;;;;;4938038;29;20043;-78
2022/10/15 16:29:29;;;;;;;16.92;9.57;;;;;;;;;;4939412;29;20047;-78
2022/10/15 16:32:15;;;;;;;14.88;7.80;;;;;;;;;;4944302;29;20048;-76
2022/10/15 16:35:00;;;;;;;13.35;7.03;;;;;;;;;;4944302;29;20399;-78
2022/10/15 16:37:47;;;;;;;13.93;7.20;;;;;;;;;;4938082;29;20043;-79
2022/10/15 16:40:33;;;;;;;11.18;6.05;;;;;;;;;;4937671;29;20055;-79
2022/10/15 16:43:19;;;;;;;11.80;5.85;;;;;;;;;;4938288;29;20039;-79
2022/10/15 16:46:06;;;;;;;12.80;6.03;;;;;;;;;;4937565;29;20060;-79
2022/10/15 16:48:53;;;;;;;14.38;7.30;;;;;;;;;;4937650;29;20051;-77
2022/10/15 16:51:38;;;;;;;14.10;7.20;;;;;;;;;;4937135;29;20056;-79